Time;durP1;ratioP1;P1;durP2;ratioP2;P2;SDS_P1;SDS_P2;PMS_P1;PMS_P2;Temp;Humidity;BMP_temperature;BMP_pressure;BME280_temperature;BME280_humidity;BME280_pressure;Samples;Min_cycle;Max_cycle;Signal;HPM_P1;HPM_P2
2023/10/29 00:00:03;;;;;;;14.67;3.60;;;;;;;-143.21;62.79;72066.22;4976167;28;20239;-83
2023/10/29 00:02:30;;;;;;;7.60;3.93;;;;;;;-143.21;62.87;72054.34;4978489;28;20219;-83
2023/10/29 00:04:59;;;;;;;8.47;3.90;;;;;;;-143.21;62.42;72050.38;4979785;28;20318;-82
2023/10/29 00:07:30;;;;;;;6.07;3.87;;;;;;;-143.21;62.81;72052.34;4976704;28;20660;-83
2023/10/29 00:09:57;;;;;;;7.93;4.10;;;;;;;-143.21;63.33;72056.31;4979659;28;20699;-83
2023/10/29 00:12:25;;;;;;;12.77;4.30;;;;;;;-143.21;63.49;72066.22;4976241;28;20654;-84
2023/10/29 00:15:01;;;;;;;9.87;4.07;;;;;;;-143.21;63.20;72046.41;4976826;28;20587;-83
2023/10/29 00:17:28;;;;;;;7.30;4.00;;;;;;;-143.21;63.20;72046.41;4978464;28;20208;-83
2023/10/29 00:19:55;;;;;;;10.47;4.20;;;;;;;-143.21;63.48;72048.38;4979271;28;20220;-83
2023/10/29 00:22:32;;;;;;;12.33;4.83;;;;;;;-143.21;63.38;72056.31;4978290;28;20671;-83
2023/10/29 00:24:59;;;;;;;13.43;5.13;;;;;;;-143.21;63.42;72068.22;4980139;28;20204;-83
2023/10/29 00:27:27;;;;;;;10.30;4.20;;;;;;;-143.21;63.24;72070.19;4982718;28;20214;-83
2023/10/29 00:29:54;;;;;;;9.23;4.30;;;;;;;-143.21;63.33;72078.13;4979791;28;20236;-83
2023/10/29 00:32:20;;;;;;;10.70;4.30;;;;;;;-143.21;63.15;72074.16;4980164;28;20683;-83
2023/10/29 00:34:48;;;;;;;12.63;4.23;;;;;;;-143.21;63.49;72082.09;4974975;28;20208;-83
2023/10/29 00:37:17;;;;;;;8.07;4.47;;;;;;;-143.21;63.67;72084.06;4973327;28;20204;-83
2023/10/29 00:39:44;;;;;;;8.47;3.80;;;;;;;-143.21;63.57;72092.00;4974053;28;20292;-83
2023/10/29 00:42:11;;;;;;;9.97;4.17;;;;;;;-143.21;63.47;72101.94;4983056;28;20204;-83
2023/10/29 00:48:08;;;;;;;7.73;3.83;;;;;;;-143.21;62.59;72109.84;4975448;28;20248;-82
2023/10/29 00:50:34;;;;;;;8.57;3.57;;;;;;;-143.21;62.17;72113.81;4979153;28;20286;-82
2023/10/29 00:53:01;;;;;;;7.17;3.93;;;;;;;-143.21;62.15;72123.75;4974411;28;20227;-82
2023/10/29 00:55:29;;;;;;;8.27;3.40;;;;;;;-143.21;62.83;72137.63;4976028;28;20208;-83
2023/10/29 00:57:56;;;;;;;9.37;4.00;;;;;;;-143.21;63.04;72135.63;4980116;28;20664;-83
2023/10/29 01:00:24;;;;;;;11.37;4.33;;;;;;;-143.21;62.68;72141.59;4972671;28;20221;-83
2023/10/29 01:02:50;;;;;;;8.60;3.53;;;;;;;-143.21;63.01;72135.63;4975668;28;20220;-84
2023/10/29 01:05:19;;;;;;;6.47;3.47;;;;;;;-143.21;63.17;72139.59;4971712;28;21024;-84
2023/10/29 01:07:46;;;;;;;9.73;4.17;;;;;;;-143.21;63.27;72155.47;4976747;28;20193;-84
2023/10/29 01:10:13;;;;;;;8.13;3.57;;;;;;;-143.21;63.05;72151.50;4973323;28;20204;-84
2023/10/29 01:12:40;;;;;;;9.80;3.70;;;;;;;-143.21;62.60;72173.31;4973118;28;20197;-85
2023/10/29 01:15:08;;;;;;;9.80;3.77;;;;;;;-143.21;62.67;72205.03;4982430;28;20204;-83
2023/10/29 01:17:34;;;;;;;6.50;3.47;;;;;;;-143.21;62.80;72216.94;4959320;28;20268;-82
2023/10/29 01:20:03;;;;;;;9.93;3.63;;;;;;;-143.21;62.92;72220.91;4971022;28;20221;-82
2023/10/29 01:22:33;;;;;;;12.77;3.80;;;;;;;-143.21;63.31;72216.94;4968150;28;20205;-82
2023/10/29 01:25:00;;;;;;;7.83;3.87;;;;;;;-143.21;63.83;72222.91;4966749;28;20221;-81
2023/10/29 01:27:27;;;;;;;12.47;4.10;;;;;;;-143.21;63.84;72216.94;4969766;28;20205;-81
2023/10/29 01:29:53;;;;;;;8.83;4.10;;;;;;;-143.21;63.81;72216.94;4982241;28;20248;-81
2023/10/29 01:32:20;;;;;;;9.27;3.67;;;;;;;-143.21;63.80;72230.81;4975273;28;20255;-81
2023/10/29 01:34:47;;;;;;;9.53;3.47;;;;;;;-143.21;64.31;72234.78;4967652;28;20590;-81
2023/10/29 01:37:14;;;;;;;12.10;4.20;;;;;;;-143.21;64.28;72234.78;4970258;28;20204;-82
2023/10/29 01:39:43;;;;;;;10.03;3.97;;;;;;;-143.21;64.30;72234.78;4979096;28;20212;-81
2023/10/29 01:42:09;;;;;;;7.37;3.47;;;;;;;-143.21;64.59;72240.75;4975612;28;20213;-82
2023/10/29 01:44:36;;;;;;;7.73;3.17;;;;;;;-143.21;64.88;72246.69;4979293;28;20690;-82
2023/10/29 01:47:04;;;;;;;9.77;4.20;;;;;;;-143.21;64.91;72224.88;4980913;28;20203;-82
2023/10/29 01:49:31;;;;;;;12.93;3.87;;;;;;;-143.21;64.93;72232.81;4974214;28;20219;-82
2023/10/29 01:51:57;;;;;;;8.83;3.60;;;;;;;-143.21;64.83;72228.84;4980497;28;20192;-82
2023/10/29 01:54:24;;;;;;;8.37;3.80;;;;;;;-143.21;64.46;72226.84;4975773;28;20285;-82
2023/10/29 01:56:53;;;;;;;8.43;3.90;;;;;;;-143.21;64.51;72224.88;4983052;28;20268;-82
2023/10/29 01:59:20;;;;;;;7.43;3.90;;;;;;;-143.21;64.44;72224.88;4976514;28;20284;-82
2023/10/29 02:01:46;;;;;;;10.07;3.77;;;;;;;-143.21;64.60;72228.84;4979448;28;20732;-82
2023/10/29 02:04:14;;;;;;;6.03;3.50;;;;;;;-143.21;64.25;72256.59;4974448;28;20207;-83
2023/10/29 02:07:09;;;;;;;9.27;3.73;;;;;;;-143.21;64.32;72254.63;4977226;28;20208;-82
2023/10/29 02:09:39;;;;;;;6.93;3.63;;;;;;;-143.21;64.25;72262.56;4979349;28;20200;-82
2023/10/29 02:12:08;;;;;;;5.40;3.40;;;;;;;-143.21;64.60;72260.56;4977913;28;20200;-83
2023/10/29 02:15:22;;;;;;;11.10;4.20;;;;;;;-143.21;65.20;72278.41;4980033;28;20209;-83
2023/10/29 02:17:51;;;;;;;10.43;3.87;;;;;;;-143.21;65.38;72282.38;4981778;28;20192;-81
2023/10/29 02:20:17;;;;;;;11.37;5.23;;;;;;;-143.21;65.29;72280.41;4971814;28;20653;-82
2023/10/29 02:22:46;;;;;;;15.10;5.37;;;;;;;-143.21;65.02;72282.38;4976196;28;20680;-82
2023/10/29 02:25:12;;;;;;;8.53;4.87;;;;;;;-143.21;65.22;72284.38;4979664;28;20207;-81
2023/10/29 02:27:39;;;;;;;8.53;4.20;;;;;;;-143.21;65.26;72288.34;4973657;28;20210;-80
2023/10/29 02:30:07;;;;;;;10.33;4.37;;;;;;;-143.21;65.26;72290.31;4970860;28;20232;-80
2023/10/29 02:32:38;;;;;;;12.80;4.60;;;;;;;-143.21;65.31;72280.41;4980120;28;20213;-80
2023/10/29 02:35:07;;;;;;;8.70;4.30;;;;;;;-143.21;65.23;72280.41;4969442;28;20651;-80
2023/10/29 02:37:34;;;;;;;9.43;4.40;;;;;;;-143.21;65.03;72280.41;4978610;28;20211;-81
2023/10/29 02:40:03;;;;;;;11.40;4.27;;;;;;;-143.21;65.27;72290.31;4982267;28;20478;-81
2023/10/29 02:42:30;;;;;;;13.07;4.53;;;;;;;-143.21;65.62;72300.25;4973782;28;20290;-80
2023/10/29 02:44:58;;;;;;;9.10;4.67;;;;;;;-143.21;65.72;72298.25;4967951;28;20676;-81
2023/10/29 02:47:25;;;;;;;7.03;4.37;;;;;;;-143.21;65.43;72296.28;4975662;28;20197;-82
2023/10/29 02:49:53;;;;;;;10.00;4.53;;;;;;;-143.21;65.48;72306.19;4967155;28;20201;-81
2023/10/29 02:52:20;;;;;;;12.97;4.77;;;;;;;-143.21;65.44;72306.19;4971321;28;20303;-80
2023/10/29 02:54:48;;;;;;;12.43;4.63;;;;;;;-143.21;65.80;72322.06;4978047;28;20224;-81
2023/10/29 02:57:16;;;;;;;9.63;4.80;;;;;;;-143.21;65.92;72318.09;4971659;28;20310;-81
2023/10/29 02:59:43;;;;;;;8.53;4.17;;;;;;;-143.21;66.37;72322.06;4979965;28;20219;-81
2023/10/29 03:02:11;;;;;;;10.87;4.47;;;;;;;-143.21;66.48;72337.91;4975597;28;20247;-81
2023/10/29 03:04:38;;;;;;;10.13;4.43;;;;;;;-143.21;66.58;72335.94;4970476;28;20197;-81
2023/10/29 03:07:05;;;;;;;14.57;5.07;;;;;;;-143.21;66.81;72345.84;4972591;28;20200;-81
2023/10/29 03:09:31;;;;;;;12.03;5.07;;;;;;;-143.21;67.19;72343.88;4980150;28;20235;-81
2023/10/29 03:11:58;;;;;;;15.57;5.10;;;;;;;-143.21;66.97;72349.81;4975037;28;20233;-85
2023/10/29 03:14:26;;;;;;;10.93;4.40;;;;;;;-143.21;67.33;72353.78;4972011;28;20207;-84
2023/10/29 03:16:54;;;;;;;12.40;4.20;;;;;;;-143.21;67.58;72361.72;4985979;28;20208;-84
2023/10/29 03:19:21;;;;;;;9.37;4.23;;;;;;;-143.21;67.90;72363.69;4979124;28;20290;-83
2023/10/29 03:21:49;;;;;;;11.73;3.90;;;;;;;-143.21;67.45;72363.69;4976275;28;20326;-83
2023/10/29 03:24:16;;;;;;;8.17;3.87;;;;;;;-143.21;67.42;72363.69;4975612;28;20197;-82
2023/10/29 03:26:43;;;;;;;8.33;3.67;;;;;;;-143.21;67.06;72349.81;4971002;28;20201;-80
2023/10/29 03:29:10;;;;;;;8.67;4.10;;;;;;;-143.21;67.06;72359.72;4973141;28;20217;-80
2023/10/29 03:31:38;;;;;;;12.53;4.50;;;;;;;-143.21;67.10;72359.72;4979094;28;20240;-81
2023/10/29 03:34:07;;;;;;;6.63;3.83;;;;;;;-143.21;67.11;72373.63;4974018;28;20212;-81
2023/10/29 03:36:34;;;;;;;9.20;4.17;;;;;;;-143.21;67.02;72375.59;4976815;28;20209;-81
2023/10/29 03:39:01;;;;;;;7.53;4.00;;;;;;;-143.21;67.11;72385.50;4977523;28;20216;-82
2023/10/29 03:41:28;;;;;;;10.23;4.20;;;;;;;-143.21;66.97;72383.53;4977106;28;20227;-82
2023/10/29 03:43:55;;;;;;;13.00;4.90;;;;;;;-143.21;67.35;72387.50;4972902;28;20227;-81
2023/10/29 03:46:22;;;;;;;11.60;4.70;;;;;;;-143.21;67.45;72397.41;4978418;28;20207;-82
2023/10/29 03:48:50;;;;;;;15.87;5.33;;;;;;;-143.21;67.63;72413.28;4969882;28;20295;-82
2023/10/29 03:51:17;;;;;;;13.00;5.67;;;;;;;-143.21;67.31;72417.25;4976634;28;20204;-82
2023/10/29 03:53:44;;;;;;;12.87;6.20;;;;;;;-143.21;67.63;72425.19;4975228;28;20212;-81
2023/10/29 03:56:11;;;;;;;9.53;5.20;;;;;;;-143.21;67.65;72425.19;4973497;28;20201;-81
2023/10/29 03:58:38;;;;;;;12.90;6.17;;;;;;;-143.21;68.08;72439.06;4976973;28;20197;-82
2023/10/29 04:01:06;;;;;;;11.97;6.60;;;;;;;-143.21;67.97;72431.13;4985589;28;20224;-81
2023/10/29 04:03:32;;;;;;;14.57;5.90;;;;;;;-143.21;67.60;72441.03;4982190;28;20212;-81
2023/10/29 04:06:00;;;;;;;10.83;5.67;;;;;;;-143.21;67.80;72443.03;4977535;28;20223;-81
2023/10/29 04:08:27;;;;;;;14.30;6.53;;;;;;;-143.21;67.98;72448.97;4981426;28;20753;-81
2023/10/29 04:10:54;;;;;;;10.70;5.87;;;;;;;-143.21;68.11;72466.81;4971483;28;20239;-81
2023/10/29 04:13:21;;;;;;;16.50;6.33;;;;;;;-143.21;68.84;72478.72;4977310;28;20291;-81
2023/10/29 04:15:48;;;;;;;10.93;6.27;;;;;;;-143.21;68.84;72474.75;4974409;28;20616;-82
2023/10/29 04:18:15;;;;;;;13.90;7.00;;;;;;;-143.21;68.68;72476.75;4975533;28;20193;-81
2023/10/29 04:20:42;;;;;;;14.47;6.00;;;;;;;-143.21;68.09;72476.75;4967789;28;20208;-82
2023/10/29 04:23:10;;;;;;;13.90;5.20;;;;;;;-143.21;68.01;72480.72;4976441;28;20224;-82
2023/10/29 04:25:37;;;;;;;11.20;5.63;;;;;;;-143.21;68.50;72484.66;4984025;28;20294;-83
2023/10/29 04:28:04;;;;;;;12.20;5.57;;;;;;;-143.21;68.71;72488.63;4973046;28;20213;-82
2023/10/29 04:30:31;;;;;;;10.93;6.00;;;;;;;-143.21;68.25;72470.78;4976081;28;20246;-84
2023/10/29 04:32:58;;;;;;;13.57;5.57;;;;;;;-143.21;68.16;72476.75;4979034;28;20196;-84
2023/10/29 04:35:25;;;;;;;10.50;5.33;;;;;;;-143.21;68.45;72484.66;4981016;28;20264;-85
2023/10/29 04:37:55;;;;;;;16.13;6.80;;;;;;;-143.21;68.58;72492.59;4981185;28;20216;-84
2023/10/29 04:40:23;;;;;;;9.90;5.80;;;;;;;-143.21;68.90;72502.53;4979526;28;20209;-83
2023/10/29 04:42:50;;;;;;;11.33;5.60;;;;;;;-143.21;68.87;72510.44;4976659;28;20310;-82
2023/10/29 04:45:17;;;;;;;11.97;5.73;;;;;;;-143.21;69.27;72510.44;4980783;28;20199;-81
2023/10/29 04:47:44;;;;;;;22.20;6.17;;;;;;;-143.21;69.18;72514.41;4979415;28;20236;-81
2023/10/29 04:50:11;;;;;;;11.70;5.73;;;;;;;-143.21;69.56;72516.41;4976509;28;20200;-81
2023/10/29 04:52:38;;;;;;;12.27;5.60;;;;;;;-143.21;69.44;72522.34;4976879;28;20240;-82
2023/10/29 04:55:05;;;;;;;14.70;6.17;;;;;;;-143.21;69.62;72520.38;4980829;28;20201;-82
2023/10/29 04:57:33;;;;;;;14.00;6.27;;;;;;;-143.21;69.71;72518.38;4977782;28;20208;-82
2023/10/29 05:00:00;;;;;;;19.47;6.60;;;;;;;-143.21;68.95;72520.38;4979795;28;21007;-83
2023/10/29 05:02:36;;;;;;;13.67;6.33;;;;;;;-143.21;69.34;72536.25;4977590;28;20216;-85
2023/10/29 05:05:05;;;;;;;12.53;6.40;;;;;;;-143.21;69.65;72544.16;4975556;28;20208;-84
2023/10/29 05:07:32;;;;;;;19.20;7.00;;;;;;;-143.21;69.29;72542.19;4975786;28;20205;-84
2023/10/29 05:09:59;;;;;;;22.50;7.20;;;;;;;-143.21;69.37;72552.09;4977204;28;20201;-84
2023/10/29 05:12:26;;;;;;;17.17;6.53;;;;;;;-143.21;69.53;72558.06;4975376;28;20200;-84
2023/10/29 05:14:54;;;;;;;13.70;7.07;;;;;;;-143.21;69.49;72565.97;4974731;28;20208;-85
2023/10/29 05:17:21;;;;;;;15.43;6.80;;;;;;;-143.21;69.34;72571.94;4975660;28;20655;-84
2023/10/29 05:19:48;;;;;;;22.53;6.83;;;;;;;-143.21;69.65;72579.88;4976638;28;20579;-82
2023/10/29 05:22:15;;;;;;;16.67;5.93;;;;;;;-143.21;69.60;72579.88;4979608;28;20240;-81
2023/10/29 05:24:42;;;;;;;13.33;5.20;;;;;;;-143.21;68.92;72569.94;4972905;28;20318;-81
2023/10/29 05:27:09;;;;;;;8.33;4.97;;;;;;;-143.21;68.42;72571.94;4972352;28;20702;-81
2023/10/29 05:29:36;;;;;;;11.77;5.47;;;;;;;-143.21;67.98;72583.84;4976867;28;20216;-81
2023/10/29 05:32:05;;;;;;;12.87;5.63;;;;;;;-143.21;68.25;72581.84;4974145;28;20588;-80
2023/10/29 05:34:33;;;;;;;18.10;5.73;;;;;;;-143.21;68.24;72579.88;4972153;28;20258;-80
2023/10/29 05:37:00;;;;;;;12.03;5.97;;;;;;;-143.21;68.51;72581.84;4969821;28;20204;-80
2023/10/29 05:39:27;;;;;;;13.53;6.50;;;;;;;-143.21;68.82;72589.78;4974321;28;20215;-81
2023/10/29 05:41:54;;;;;;;15.07;6.97;;;;;;;-143.21;68.97;72585.81;4972575;28;20861;-81
2023/10/29 05:44:20;;;;;;;14.93;5.80;;;;;;;-143.21;68.58;72587.81;4968070;28;20219;-80
2023/10/29 05:46:48;;;;;;;14.67;7.63;;;;;;;-143.21;68.40;72587.81;4968339;28;20208;-81
2023/10/29 05:49:16;;;;;;;14.53;7.63;;;;;;;-143.21;68.59;72577.88;4969198;28;20208;-81
2023/10/29 05:51:43;;;;;;;16.47;8.13;;;;;;;-143.21;68.48;72579.88;4962084;28;20204;-81
2023/10/29 05:54:10;;;;;;;16.57;7.93;;;;;;;-143.21;68.51;72583.84;4977321;28;20299;-81
2023/10/29 05:56:37;;;;;;;13.77;7.93;;;;;;;-143.21;68.68;72585.81;4970276;28;20228;-81
2023/10/29 05:59:04;;;;;;;16.97;7.80;;;;;;;-143.21;68.61;72589.78;4976800;28;20271;-81
2023/10/29 06:01:53;;;;;;;13.17;7.77;;;;;;;-143.21;68.63;72589.78;4978423;28;20925;-81
2023/10/29 06:04:22;;;;;;;13.97;7.67;;;;;;;-143.21;68.61;72585.81;4912501;29;20210;-82
2023/10/29 06:06:48;;;;;;;16.03;9.20;;;;;;;-143.21;68.92;72589.78;4966515;28;20208;-83
2023/10/29 06:09:21;;;;;;;17.77;9.20;;;;;;;-143.21;68.84;72579.88;4982208;28;20204;-83
2023/10/29 06:11:48;;;;;;;20.17;10.60;;;;;;;-143.21;68.71;72571.94;4970403;28;20204;-84
2023/10/29 06:14:15;;;;;;;23.27;10.63;;;;;;;-143.21;68.71;72565.97;4967143;28;20229;-83
2023/10/29 06:16:42;;;;;;;19.70;10.80;;;;;;;-143.21;68.11;72556.06;4975355;28;20204;-82
2023/10/29 06:19:09;;;;;;;18.90;10.33;;;;;;;-143.21;68.12;72550.13;4973382;28;20205;-82
2023/10/29 06:21:38;;;;;;;24.97;10.70;;;;;;;-143.21;68.42;72552.09;4977874;28;20643;-82
2023/10/29 06:24:05;;;;;;;26.87;10.73;;;;;;;-143.21;68.08;72548.13;4973565;28;20196;-83
2023/10/29 06:26:32;;;;;;;21.00;10.23;;;;;;;-143.21;68.16;72540.19;4977213;28;20215;-82
2023/10/29 06:28:59;;;;;;;16.67;9.70;;;;;;;-143.21;67.98;72532.28;4978815;28;20205;-82
2023/10/29 06:31:29;;;;;;;17.87;8.77;;;;;;;-143.21;67.96;72532.28;4973632;28;20235;-82
2023/10/29 06:33:56;;;;;;;14.17;7.33;;;;;;;-143.21;67.53;72540.19;4971121;28;20205;-82
2023/10/29 06:36:23;;;;;;;15.13;6.70;;;;;;;-143.21;67.87;72540.19;4974118;28;20239;-82
2023/10/29 06:38:55;;;;;;;14.10;6.57;;;;;;;-143.21;68.24;72550.13;4979300;28;20204;-82
2023/10/29 06:41:21;;;;;;;13.33;5.90;;;;;;;-143.21;67.45;72538.22;4975823;28;20193;-81
2023/10/29 06:43:48;;;;;;;14.90;6.47;;;;;;;-143.21;67.45;72534.25;4978738;28;20235;-82
2023/10/29 06:46:16;;;;;;;9.87;5.83;;;;;;;-143.21;67.27;72528.31;4973235;28;20204;-82
2023/10/29 06:48:43;;;;;;;17.13;6.70;;;;;;;-143.21;67.37;72520.38;4982143;28;20208;-82
2023/10/29 06:51:10;;;;;;;14.67;7.13;;;;;;;-143.21;66.85;72522.34;4975101;28;20219;-82
2023/10/29 06:53:37;;;;;;;16.17;7.33;;;;;;;-143.21;66.98;72520.38;4978730;28;20210;-82
2023/10/29 06:56:06;;;;;;;12.43;6.57;;;;;;;-143.21;67.05;72516.41;4981345;28;20212;-82
2023/10/29 06:58:33;;;;;;;11.17;6.60;;;;;;;-143.21;66.95;72504.50;4969922;28;20291;-82
2023/10/29 07:01:04;;;;;;;16.23;7.43;;;;;;;-143.21;66.94;72498.56;4977938;28;20218;-82
2023/10/29 07:03:31;;;;;;;16.57;7.30;;;;;;;-143.21;66.79;72498.56;4969164;28;20244;-82
2023/10/29 07:06:06;;;;;;;16.70;7.30;;;;;;;-143.21;66.82;72496.56;4971404;28;20207;-82
2023/10/29 07:08:34;;;;;;;12.83;6.93;;;;;;;-143.21;66.74;72492.59;4972196;28;20236;-80
2023/10/29 07:11:02;;;;;;;14.17;6.30;;;;;;;-143.21;66.54;72496.56;4981510;28;20201;-81
2023/10/29 07:13:30;;;;;;;13.87;6.13;;;;;;;-143.21;66.49;72486.66;4974913;28;20224;-80
2023/10/29 07:15:58;;;;;;;12.50;6.20;;;;;;;-143.21;66.08;72472.78;4969461;28;20203;-82
2023/10/29 07:18:27;;;;;;;10.83;6.13;;;;;;;-143.21;65.89;72458.88;4975195;28;20193;-82
2023/10/29 07:20:54;;;;;;;13.63;5.83;;;;;;;-143.21;65.35;72454.91;4977995;28;20211;-84
2023/10/29 07:23:22;;;;;;;17.93;5.90;;;;;;;-143.21;65.43;72443.03;4972006;28;20210;-85
2023/10/29 07:25:49;;;;;;;9.93;5.20;;;;;;;-143.21;65.14;72439.06;4976769;28;20201;-85
2023/10/29 07:28:16;;;;;;;11.37;5.80;;;;;;;-143.21;64.52;72435.09;4971505;28;20204;-80
2023/10/29 07:30:44;;;;;;;13.97;5.40;;;;;;;-143.21;64.61;72437.06;4970335;28;20236;-82
2023/10/29 07:33:13;;;;;;;17.87;5.63;;;;;;;-143.21;64.59;72427.16;4979146;28;20207;-82
2023/10/29 07:35:45;;;;;;;14.47;5.60;;;;;;;-143.21;64.18;72419.22;4981652;28;20203;-83
2023/10/29 07:38:12;;;;;;;9.13;5.20;;;;;;;-143.21;63.77;72409.31;4967780;28;20220;-83
2023/10/29 07:40:39;;;;;;;14.93;5.50;;;;;;;-143.21;63.66;72411.28;4980857;28;20212;-82
2023/10/29 07:43:09;;;;;;;14.60;5.30;;;;;;;-143.21;63.24;72407.31;4979737;28;20664;-82
2023/10/29 07:45:36;;;;;;;12.93;5.00;;;;;;;-143.21;63.07;72393.44;4981475;28;20251;-83
2023/10/29 07:48:05;;;;;;;10.17;4.63;;;;;;;-143.21;62.98;72385.50;4981734;28;20219;-83
2023/10/29 07:50:33;;;;;;;10.20;4.60;;;;;;;-143.21;63.01;72381.53;4977882;28;20751;-82
2023/10/29 07:53:01;;;;;;;13.90;4.90;;;;;;;-143.21;62.88;72371.63;4976619;28;20204;-82
2023/10/29 07:55:28;;;;;;;9.00;3.70;;;;;;;-143.21;62.38;72359.72;4981379;28;20231;-83
2023/10/29 07:57:54;;;;;;;9.53;4.10;;;;;;;-143.21;61.98;72339.91;4970446;28;20200;-83
2023/10/29 08:00:21;;;;;;;11.53;4.37;;;;;;;-143.21;61.24;72324.03;4973378;28;20291;-82
2023/10/29 08:02:48;;;;;;;10.13;4.97;;;;;;;-143.21;61.06;72308.16;4978592;28;20220;-82
2023/10/29 08:05:17;;;;;;;13.37;5.23;;;;;;;-143.21;60.91;72304.19;4975379;28;20200;-82
2023/10/29 08:07:43;;;;;;;10.63;5.30;;;;;;;-143.21;60.97;72306.19;4972295;28;20193;-83
2023/10/29 08:10:12;;;;;;;14.87;5.83;;;;;;;-143.21;61.32;72296.28;4976821;28;20193;-83
2023/10/29 08:12:43;;;;;;;12.07;5.90;;;;;;;-143.21;61.19;72292.31;4974358;28;20204;-83
2023/10/29 08:15:10;;;;;;;12.30;5.43;;;;;;;-143.21;60.48;72282.38;4972820;28;20223;-83
2023/10/29 08:17:37;;;;;;;8.93;4.90;;;;;;;-143.21;60.47;72280.41;4978069;28;21979;-83
2023/10/29 08:20:10;;;;;;;10.90;4.30;;;;;;;-143.21;60.02;72268.50;4972411;28;20200;-82
2023/10/29 08:22:42;;;;;;;11.23;4.77;;;;;;;-143.21;60.08;72256.59;4981016;28;20263;-81
2023/10/29 08:25:10;;;;;;;12.67;4.20;;;;;;;-143.21;59.78;72248.66;4975735;28;20213;-82
2023/10/29 08:27:39;;;;;;;13.47;4.57;;;;;;;-143.21;59.63;72236.78;4970756;28;20581;-80
2023/10/29 08:30:09;;;;;;;8.73;4.53;;;;;;;-143.21;59.68;72224.88;4973020;28;20975;-81
2023/10/29 08:32:36;;;;;;;8.27;4.30;;;;;;;-143.21;59.58;72216.94;4973825;28;20216;-80
2023/10/29 08:35:03;;;;;;;16.10;4.33;;;;;;;-143.21;59.10;72201.09;4969836;28;20215;-79
2023/10/29 08:37:30;;;;;;;16.57;4.47;;;;;;;-143.21;58.70;72199.09;4970323;28;21172;-80
2023/10/29 08:40:01;;;;;;;9.67;4.53;;;;;;;-143.21;58.69;72193.16;4970435;28;20212;-80
2023/10/29 08:42:31;;;;;;;10.03;4.37;;;;;;;-143.21;58.71;72191.16;4967960;28;20194;-80
2023/10/29 08:44:58;;;;;;;13.50;4.40;;;;;;;-143.21;58.18;72173.31;4970339;28;20212;-79
2023/10/29 08:50:09;;;;;;;11.83;4.70;;;;;;;-143.21;57.87;72149.53;4982116;28;20218;-84
2023/10/29 08:52:37;;;;;;;12.43;4.80;;;;;;;-143.21;57.48;72109.84;4967230;28;20209;-85
2023/10/29 08:55:06;;;;;;;14.83;4.40;;;;;;;-143.21;56.54;72050.38;4969360;28;20211;-87
2023/10/29 08:57:38;;;;;;;11.10;4.60;;;;;;;-143.21;55.01;71971.06;4972105;28;20227;-86
2023/10/29 09:00:06;;;;;;;11.00;4.63;;;;;;;-143.21;52.34;71901.66;4976411;28;20205;-87
2023/10/29 09:02:38;;;;;;;9.85;3.80;;;;;;;-143.21;50.82;71824.31;4976750;28;20664;-89
2023/10/29 09:05:07;;;;;;;12.45;3.92;;;;;;;-143.21;48.76;71752.94;4981446;28;20197;-87
2023/10/29 09:07:33;;;;;;;10.90;4.00;;;;;;;-143.21;47.97;71683.53;4977182;28;20223;-88
2023/10/29 09:10:02;;;;;;;11.85;4.63;;;;;;;-143.21;46.55;71604.22;4975158;28;20208;-89
2023/10/29 09:12:30;;;;;;;8.27;4.10;;;;;;;-143.21;45.19;71516.97;4978795;28;20207;-89
2023/10/29 09:14:57;;;;;;;11.65;3.50;;;;;;;-143.21;43.20;71451.56;4979384;28;20205;-90
2023/10/29 09:17:26;;;;;;;5.55;3.15;;;;;;;-143.21;42.72;71390.09;4976349;28;20197;-90
2023/10/29 09:19:53;;;;;;;10.65;4.07;;;;;;;-143.21;41.47;71332.59;4979843;28;20196;-88
2023/10/29 09:22:20;;;;;;;8.50;4.00;;;;;;;-143.21;40.41;71269.16;4970025;28;20213;-90
2023/10/29 09:24:48;;;;;;;10.35;3.88;;;;;;;-143.21;39.64;71223.56;4979513;28;20231;-90
2023/10/29 09:27:15;;;;;;;10.45;3.78;;;;;;;-143.21;39.23;71189.84;4985079;28;20209;-88
2023/10/29 09:29:43;;;;;;;7.50;3.53;;;;;;;-143.21;38.50;71154.16;4986260;28;20232;-89
2023/10/29 09:32:13;;;;;;;7.13;3.88;;;;;;;-143.21;38.02;71144.25;4975903;28;20750;-89
2023/10/29 09:37:44;;;;;;;7.28;3.70;;;;;;;-143.21;37.19;71039.19;4974556;28;20209;-90
2023/10/29 09:40:14;;;;;;;9.07;3.97;;;;;;;-143.21;36.25;70975.75;4972721;28;20199;-86
2023/10/29 09:42:49;;;;;;;6.80;3.50;;;;;;;-143.21;35.59;70896.47;4973079;28;20224;-85
2023/10/29 09:45:24;;;;;;;11.27;3.20;;;;;;;-143.21;34.75;70856.81;4985370;28;20242;-84
2023/10/29 09:47:52;;;;;;;7.20;3.35;;;;;;;-143.21;34.18;70803.28;4974692;28;20200;-84
2023/10/29 09:50:20;;;;;;;10.50;3.03;;;;;;;-143.21;33.57;70755.72;4976048;28;20619;-84
2023/10/29 09:52:54;;;;;;;9.48;2.70;;;;;;;-143.21;33.00;70733.91;4979054;28;20205;-84
2023/10/29 09:55:21;;;;;;;8.40;3.65;;;;;;;-143.21;32.85;70672.47;4983030;28;20204;-86
2023/10/29 09:57:49;;;;;;;7.95;3.33;;;;;;;-143.21;32.08;70640.75;4975766;28;20259;-83
2023/10/29 10:00:18;;;;;;;8.13;2.83;;;;;;;-143.21;31.51;70620.94;4980361;28;20587;-84
2023/10/29 10:02:55;;;;;;;7.63;3.05;;;;;;;-143.21;32.14;70603.09;4982509;28;20262;-84
2023/10/29 10:05:24;;;;;;;6.97;2.90;;;;;;;-143.21;31.11;70561.47;4975289;28;20204;-84
2023/10/29 10:07:53;;;;;;;7.00;2.80;;;;;;;-143.21;30.47;70531.72;4978278;28;20200;-84
2023/10/29 10:10:20;;;;;;;11.82;2.95;;;;;;;-143.21;30.02;70492.09;4978102;28;20211;-84
2023/10/29 10:12:48;;;;;;;7.65;2.85;;;;;;;-143.21;30.05;70519.84;4981083;28;20276;-85
2023/10/29 10:15:18;;;;;;;7.45;2.78;;;;;;;-143.21;29.94;70515.88;4984451;28;20706;-85
2023/10/29 10:17:47;;;;;;;8.60;2.72;;;;;;;-143.21;30.11;70500.00;4978359;28;20203;-84
2023/10/29 10:20:17;;;;;;;5.20;2.50;;;;;;;-143.21;29.79;70466.31;4967646;28;20239;-84
2023/10/29 10:22:43;;;;;;;6.90;2.40;;;;;;;-143.21;30.03;70420.72;4966718;28;20212;-81
2023/10/29 10:25:18;;;;;;;8.77;2.65;;;;;;;-143.21;28.86;70383.06;4978994;28;20219;-85
2023/10/29 10:27:50;;;;;;;6.68;2.90;;;;;;;-143.21;28.76;70353.34;4973233;28;20258;-84
2023/10/29 10:30:30;;;;;;;8.18;2.45;;;;;;;-143.21;27.97;70345.41;4978958;28;20303;-83
2023/10/29 10:33:10;;;;;;;5.13;2.30;;;;;;;-143.21;27.98;70341.44;4972196;28;20208;-84
2023/10/29 10:35:41;;;;;;;7.38;2.80;;;;;;;-143.21;27.82;70353.34;4971020;28;20193;-84
2023/10/29 10:38:08;;;;;;;8.43;2.58;;;;;;;-143.21;28.11;70365.25;4974820;28;20235;-85
2023/10/29 10:40:35;;;;;;;7.70;2.58;;;;;;;-143.21;28.10;70353.34;4982465;28;20691;-84
2023/10/29 10:43:02;;;;;;;5.80;2.67;;;;;;;-143.21;28.53;70339.47;4977409;28;20219;-84
2023/10/29 10:45:33;;;;;;;10.10;2.90;;;;;;;-143.21;28.16;70311.72;4973491;28;20208;-83
2023/10/29 10:48:04;;;;;;;8.40;2.72;;;;;;;-143.21;27.71;70278.03;4983131;28;20705;-82
2023/10/29 10:50:35;;;;;;;8.88;2.60;;;;;;;-143.21;27.58;70264.16;4975874;28;20787;-84
2023/10/29 10:53:03;;;;;;;6.63;2.50;;;;;;;-143.21;27.49;70240.38;4974712;28;20303;-84
2023/10/29 10:55:31;;;;;;;7.63;2.90;;;;;;;-143.21;27.16;70230.47;4970296;28;20255;-83
2023/10/29 10:57:58;;;;;;;6.68;2.63;;;;;;;-143.21;28.29;70242.34;4974651;28;20212;-83
2023/10/29 11:00:26;;;;;;;6.28;2.35;;;;;;;-143.21;26.96;70214.59;4980109;28;20262;-83
2023/10/29 11:02:58;;;;;;;5.45;2.47;;;;;;;-143.21;26.48;70198.75;4986720;28;20296;-83
2023/10/29 11:05:29;;;;;;;3.60;2.20;;;;;;;-143.21;26.90;70234.44;4982581;28;20227;-83
2023/10/29 11:07:57;;;;;;;7.18;2.25;;;;;;;-143.21;26.23;70236.41;4978681;28;20208;-83
2023/10/29 11:10:25;;;;;;;6.80;1.90;;;;;;;-143.21;26.39;70262.19;4977611;28;20416;-84
2023/10/29 11:12:52;;;;;;;6.05;2.10;;;;;;;-143.21;26.13;70226.50;4982149;28;20223;-83
2023/10/29 11:15:22;;;;;;;4.13;1.98;;;;;;;-143.21;26.14;70220.56;4980866;28;20208;-84
2023/10/29 11:17:58;;;;;;;6.65;2.22;;;;;;;-143.21;26.27;70188.84;4979358;28;20208;-83
2023/10/29 11:20:56;;;;;;;5.93;2.33;;;;;;;-143.21;26.24;70145.25;4981743;28;20200;-82
2023/10/29 11:23:25;;;;;;;174.02;80.25;;;;;;;-143.21;25.27;70115.50;4975916;28;20216;-84
2023/10/29 11:26:34;;;;;;;177.07;55.38;;;;;;;-143.21;25.05;70129.38;4980821;28;20273;-84